sensor_id;sensor_type;location;lat;lon;timestamp;pressure;altitude;pressure_sealevel;temperature;humidity
63096;BME280;49184;55.596;37.770;2023-07-08T00:54:48;99495.59;;;20.44;89.74
63096;BME280;49184;55.596;37.770;2023-07-08T04:15:50;99482.72;;;22.11;73.55
63096;BME280;49184;55.596;37.770;2023-07-08T04:18:23;99479.19;;;22.14;72.35
63096;BME280;49184;55.596;37.770;2023-07-08T04:20:51;99481.69;;;22.26;72.00
63096;BME280;49184;55.596;37.770;2023-07-08T04:23:19;99487.69;;;22.28;71.48
63096;BME280;49184;55.596;37.770;2023-07-08T04:25:49;99489.31;;;22.40;71.55
63096;BME280;49184;55.596;37.770;2023-07-08T04:28:16;99497.69;;;22.40;70.56
63096;BME280;49184;55.596;37.770;2023-07-08T04:30:45;99508.81;;;22.40;69.94
63096;BME280;49184;55.596;37.770;2023-07-08T04:33:14;99506.09;;;22.47;69.10
63096;BME280;49184;55.596;37.770;2023-07-08T04:35:41;99511.31;;;22.56;69.68
63096;BME280;49184;55.596;37.770;2023-07-08T04:38:16;99522.50;;;22.63;69.21
63096;BME280;49184;55.596;37.770;2023-07-08T04:40:47;99518.97;;;22.70;69.39
63096;BME280;49184;55.596;37.770;2023-07-08T04:43:15;99520.53;;;22.71;70.10
63096;BME280;49184;55.596;37.770;2023-07-08T04:45:42;99520.13;;;22.65;70.13
63096;BME280;49184;55.596;37.770;2023-07-08T04:48:13;99516.91;;;22.60;69.24
63096;BME280;49184;55.596;37.770;2023-07-08T04:50:48;99524.81;;;22.50;69.57
63096;BME280;49184;55.596;37.770;2023-07-08T04:53:17;99526.34;;;22.41;69.21
63096;BME280;49184;55.596;37.770;2023-07-08T04:56:02;99521.53;;;22.38;69.88
63096;BME280;49184;55.596;37.770;2023-07-08T04:58:31;99536.97;;;22.28;71.03
63096;BME280;49184;55.596;37.770;2023-07-08T05:01:00;99539.78;;;22.32;71.70
63096;BME280;49184;55.596;37.770;2023-07-08T05:03:26;99542.28;;;22.44;72.98
63096;BME280;49184;55.596;37.770;2023-07-08T05:05:52;99530.34;;;22.47;71.72
63096;BME280;49184;55.596;37.770;2023-07-08T05:08:18;99539.94;;;22.49;72.70
63096;BME280;49184;55.596;37.770;2023-07-08T05:10:44;99542.31;;;22.51;70.57
63096;BME280;49184;55.596;37.770;2023-07-08T05:13:10;99541.53;;;22.50;71.07
63096;BME280;49184;55.596;37.770;2023-07-08T05:15:36;99538.00;;;22.61;72.43
63096;BME280;49184;55.596;37.770;2023-07-08T05:18:02;99526.50;;;22.62;71.38
63096;BME280;49184;55.596;37.770;2023-07-08T05:20:29;99531.28;;;22.65;70.60
63096;BME280;49184;55.596;37.770;2023-07-08T05:22:56;99536.88;;;22.69;70.60
63096;BME280;49184;55.596;37.770;2023-07-08T05:25:23;99529.28;;;22.66;70.71
63096;BME280;49184;55.596;37.770;2023-07-08T05:27:48;99523.75;;;22.73;71.88
63096;BME280;49184;55.596;37.770;2023-07-08T05:30:17;99530.53;;;22.75;71.57
63096;BME280;49184;55.596;37.770;2023-07-08T05:35:23;99514.69;;;22.90;71.21
63096;BME280;49184;55.596;37.770;2023-07-08T05:37:56;99521.41;;;22.82;68.81
63096;BME280;49184;55.596;37.770;2023-07-08T05:40:25;99520.22;;;22.80;70.12
63096;BME280;49184;55.596;37.770;2023-07-08T05:42:51;99515.44;;;22.84;69.34
63096;BME280;49184;55.596;37.770;2023-07-08T05:48:06;99510.59;;;22.73;68.48
63096;BME280;49184;55.596;37.770;2023-07-08T05:53:28;99506.53;;;22.57;69.10
63096;BME280;49184;55.596;37.770;2023-07-08T05:55:54;99511.13;;;22.27;70.53
63096;BME280;49184;55.596;37.770;2023-07-08T05:58:20;99520.72;;;22.34;70.31
63096;BME280;49184;55.596;37.770;2023-07-08T06:00:46;99518.72;;;22.34;68.85
63096;BME280;49184;55.596;37.770;2023-07-08T06:03:12;99511.91;;;22.28;68.57
63096;BME280;49184;55.596;37.770;2023-07-08T06:05:38;99515.81;;;22.16;68.39
63096;BME280;49184;55.596;37.770;2023-07-08T06:08:06;99499.47;;;22.15;69.02
63096;BME280;49184;55.596;37.770;2023-07-08T06:10:40;99503.81;;;22.09;68.93
63096;BME280;49184;55.596;37.770;2023-07-08T06:13:06;99501.16;;;22.23;69.47
63096;BME280;49184;55.596;37.770;2023-07-08T06:15:32;99491.16;;;22.18;68.87
63096;BME280;49184;55.596;37.770;2023-07-08T06:17:58;99500.59;;;22.07;69.25
63096;BME280;49184;55.596;37.770;2023-07-08T06:20:28;99497.00;;;22.02;70.33
63096;BME280;49184;55.596;37.770;2023-07-08T06:22:53;99492.03;;;21.81;70.65
63096;BME280;49184;55.596;37.770;2023-07-08T06:25:19;99490.97;;;21.93;71.09
63096;BME280;49184;55.596;37.770;2023-07-08T06:27:45;99494.16;;;21.95;71.27
63096;BME280;49184;55.596;37.770;2023-07-08T06:30:11;99485.47;;;22.04;71.53
63096;BME280;49184;55.596;37.770;2023-07-08T06:32:38;99488.19;;;21.97;71.27
63096;BME280;49184;55.596;37.770;2023-07-08T06:35:04;99474.34;;;22.08;71.33
63096;BME280;49184;55.596;37.770;2023-07-08T06:37:30;99469.69;;;22.15;70.67
63096;BME280;49184;55.596;37.770;2023-07-08T06:39:56;99471.31;;;22.20;70.18
63096;BME280;49184;55.596;37.770;2023-07-08T06:42:22;99480.03;;;22.18;69.51
63096;BME280;49184;55.596;37.770;2023-07-08T06:44:57;99486.41;;;22.19;68.47
63096;BME280;49184;55.596;37.770;2023-07-08T06:47:23;99475.59;;;22.14;69.14
63096;BME280;49184;55.596;37.770;2023-07-08T06:49:49;99488.31;;;22.11;68.36
63096;BME280;49184;55.596;37.770;2023-07-08T06:52:14;99488.31;;;22.15;68.62
63096;BME280;49184;55.596;37.770;2023-07-08T06:54:41;99484.75;;;22.14;68.30
63096;BME280;49184;55.596;37.770;2023-07-08T06:57:08;99479.94;;;22.11;67.73
63096;BME280;49184;55.596;37.770;2023-07-08T06:59:34;99473.13;;;22.05;67.15
63096;BME280;49184;55.596;37.770;2023-07-08T07:02:00;99473.50;;;21.96;67.39
63096;BME280;49184;55.596;37.770;2023-07-08T07:04:30;99483.44;;;22.01;67.75
63096;BME280;49184;55.596;37.770;2023-07-08T07:06:57;99483.09;;;22.06;67.50
63096;BME280;49184;55.596;37.770;2023-07-08T07:09:23;99483.16;;;22.13;67.57
63096;BME280;49184;55.596;37.770;2023-07-08T07:11:52;99490.38;;;22.21;66.77
63096;BME280;49184;55.596;37.770;2023-07-08T07:14:19;99486.03;;;22.20;66.97
63096;BME280;49184;55.596;37.770;2023-07-08T07:16:45;99482.47;;;22.23;67.51
63096;BME280;49184;55.596;37.770;2023-07-08T07:19:12;99486.31;;;22.12;66.34
63096;BME280;49184;55.596;37.770;2023-07-08T07:21:38;99477.19;;;22.15;66.96
63096;BME280;49184;55.596;37.770;2023-07-08T07:24:04;99480.81;;;22.15;67.21
63096;BME280;49184;55.596;37.770;2023-07-08T07:26:35;99469.69;;;22.15;67.09
63096;BME280;49184;55.596;37.770;2023-07-08T07:29:10;99465.31;;;22.18;66.76
63096;BME280;49184;55.596;37.770;2023-07-08T07:35:23;99475.97;;;22.09;66.32
63096;BME280;49184;55.596;37.770;2023-07-08T07:40:40;99486.47;;;22.26;65.29
63096;BME280;49184;55.596;37.770;2023-07-08T07:43:06;99490.09;;;22.34;65.35
63096;BME280;49184;55.596;37.770;2023-07-08T07:57:48;99505.81;;;22.70;64.66
63096;BME280;49184;55.596;37.770;2023-07-08T08:01:02;99510.56;;;22.63;64.66
63096;BME280;49184;55.596;37.770;2023-07-08T08:07:23;99512.19;;;22.74;64.39
63096;BME280;49184;55.596;37.770;2023-07-08T08:10:09;99520.16;;;22.69;64.51
63096;BME280;49184;55.596;37.770;2023-07-08T08:12:41;99518.53;;;22.68;64.94
63096;BME280;49184;55.596;37.770;2023-07-08T08:21:17;99519.25;;;22.50;65.48
63096;BME280;49184;55.596;37.770;2023-07-08T08:27:10;99526.16;;;22.16;65.60
63096;BME280;49184;55.596;37.770;2023-07-08T08:33:14;99522.13;;;22.13;66.69
63096;BME280;49184;55.596;37.770;2023-07-08T08:36:08;99524.91;;;22.10;66.09
63096;BME280;49184;55.596;37.770;2023-07-08T08:38:36;99517.84;;;22.19;66.67
63096;BME280;49184;55.596;37.770;2023-07-08T08:41:03;99527.69;;;22.13;65.93
63096;BME280;49184;55.596;37.770;2023-07-08T08:43:36;99523.31;;;22.09;67.01
63096;BME280;49184;55.596;37.770;2023-07-08T08:46:16;99525.41;;;22.19;67.42
63096;BME280;49184;55.596;37.770;2023-07-08T08:51:21;99526.66;;;22.28;65.55
63096;BME280;49184;55.596;37.770;2023-07-08T09:08:15;99522.94;;;21.69;69.63
63096;BME280;49184;55.596;37.770;2023-07-08T09:27:26;99525.22;;;22.01;67.61
63096;BME280;49184;55.596;37.770;2023-07-08T09:30:00;99522.47;;;22.08;66.94
63096;BME280;49184;55.596;37.770;2023-07-08T09:32:29;99523.00;;;22.17;68.14
63096;BME280;49184;55.596;37.770;2023-07-08T09:35:06;99519.09;;;22.25;65.59
63096;BME280;49184;55.596;37.770;2023-07-08T09:38:50;99524.78;;;22.47;65.33
63096;BME280;49184;55.596;37.770;2023-07-08T09:45:10;99535.94;;;22.50;64.23
63096;BME280;49184;55.596;37.770;2023-07-08T09:47:43;99532.06;;;22.66;63.95
63096;BME280;49184;55.596;37.770;2023-07-08T09:53:17;99534.09;;;22.69;63.27
63096;BME280;49184;55.596;37.770;2023-07-08T09:55:50;99532.13;;;22.73;61.94
63096;BME280;49184;55.596;37.770;2023-07-08T09:58:32;99532.13;;;22.77;62.09
63096;BME280;49184;55.596;37.770;2023-07-08T10:01:10;99525.09;;;22.97;61.67
63096;BME280;49184;55.596;37.770;2023-07-08T10:03:38;99517.59;;;23.12;61.49
63096;BME280;49184;55.596;37.770;2023-07-08T10:06:08;99521.22;;;23.30;60.89
63096;BME280;49184;55.596;37.770;2023-07-08T10:08:40;99532.44;;;23.44;59.86
63096;BME280;49184;55.596;37.770;2023-07-08T10:11:22;99533.25;;;23.52;59.91
63096;BME280;49184;55.596;37.770;2023-07-08T10:13:52;99538.00;;;23.41;59.51
63096;BME280;49184;55.596;37.770;2023-07-08T10:16:31;99527.56;;;23.13;58.25
63096;BME280;49184;55.596;37.770;2023-07-08T10:18:58;99527.38;;;22.81;59.76
63096;BME280;49184;55.596;37.770;2023-07-08T10:21:41;99536.56;;;22.85;60.05
63096;BME280;49184;55.596;37.770;2023-07-08T10:24:28;99528.59;;;22.87;60.26
63096;BME280;49184;55.596;37.770;2023-07-08T10:27:11;99520.75;;;23.07;59.68
63096;BME280;49184;55.596;37.770;2023-07-08T10:30:38;99520.38;;;23.12;59.17
63096;BME280;49184;55.596;37.770;2023-07-08T10:38:48;99517.28;;;23.45;61.00
63096;BME280;49184;55.596;37.770;2023-07-08T10:44:26;99499.34;;;23.57;55.23
63096;BME280;49184;55.596;37.770;2023-07-08T10:49:36;99509.81;;;24.18;55.61
63096;BME280;49184;55.596;37.770;2023-07-08T10:54:56;99507.75;;;24.68;54.74
63096;BME280;49184;55.596;37.770;2023-07-08T10:57:48;99511.28;;;24.83;53.70
63096;BME280;49184;55.596;37.770;2023-07-08T11:00:23;99506.94;;;24.71;52.90
63096;BME280;49184;55.596;37.770;2023-07-08T11:05:42;99502.19;;;24.61;51.63
63096;BME280;49184;55.596;37.770;2023-07-08T11:08:22;99497.78;;;24.56;51.70
63096;BME280;49184;55.596;37.770;2023-07-08T11:10:54;99483.84;;;24.46;52.94
63096;BME280;49184;55.596;37.770;2023-07-08T11:13:22;99481.03;;;24.53;51.24
63096;BME280;49184;55.596;37.770;2023-07-08T11:21:19;99494.78;;;25.17;50.91
63096;BME280;49184;55.596;37.770;2023-07-08T11:26:24;99489.38;;;24.71;50.78
63096;BME280;49184;55.596;37.770;2023-07-08T11:28:49;99493.38;;;24.63;49.98
63096;BME280;49184;55.596;37.770;2023-07-08T11:31:16;99484.50;;;24.85;51.40
63096;BME280;49184;55.596;37.770;2023-07-08T11:33:49;99501.19;;;25.11;48.98
63096;BME280;49184;55.596;37.770;2023-07-08T11:36:15;99501.19;;;25.11;49.63
63096;BME280;49184;55.596;37.770;2023-07-08T11:41:35;99494.91;;;24.85;47.71
63096;BME280;49184;55.596;37.770;2023-07-08T11:44:05;99498.50;;;24.82;48.03
63096;BME280;49184;55.596;37.770;2023-07-08T11:46:32;99483.81;;;24.56;49.27
63096;BME280;49184;55.596;37.770;2023-07-08T11:49:05;99486.53;;;24.81;48.82
63096;BME280;49184;55.596;37.770;2023-07-08T11:51:34;99469.56;;;25.28;47.95
63096;BME280;49184;55.596;37.770;2023-07-08T11:54:11;99476.84;;;25.74;47.90
63096;BME280;49184;55.596;37.770;2023-07-08T11:57:00;99462.81;;;25.81;46.09
63096;BME280;49184;55.596;37.770;2023-07-08T11:59:33;99469.38;;;25.57;47.60
63096;BME280;49184;55.596;37.770;2023-07-08T12:02:03;99451.53;;;25.33;47.27
63096;BME280;49184;55.596;37.770;2023-07-08T12:04:31;99468.00;;;25.75;48.35
63096;BME280;49184;55.596;37.770;2023-07-08T12:09:59;99476.88;;;25.70;47.07
63096;BME280;49184;55.596;37.770;2023-07-08T12:12:33;99476.94;;;25.60;47.38
63096;BME280;49184;55.596;37.770;2023-07-08T12:15:11;99482.56;;;25.52;45.74
63096;BME280;49184;55.596;37.770;2023-07-08T12:17:38;99478.72;;;25.32;46.51
63096;BME280;49184;55.596;37.770;2023-07-08T12:20:06;99477.53;;;25.26;46.48
63096;BME280;49184;55.596;37.770;2023-07-08T12:22:33;99477.53;;;25.29;47.28
63096;BME280;49184;55.596;37.770;2023-07-08T12:24:59;99471.09;;;25.36;47.48
63096;BME280;49184;55.596;37.770;2023-07-08T12:27:31;99474.59;;;25.51;48.26
63096;BME280;49184;55.596;37.770;2023-07-08T12:29:58;99472.09;;;25.67;46.31
63096;BME280;49184;55.596;37.770;2023-07-08T12:32:25;99474.72;;;25.89;45.87
63096;BME280;49184;55.596;37.770;2023-07-08T12:34:54;99475.06;;;25.98;44.77
63096;BME280;49184;55.596;37.770;2023-07-08T12:37:21;99477.91;;;25.94;44.03
63096;BME280;49184;55.596;37.770;2023-07-08T12:39:55;99469.16;;;25.85;44.91
63096;BME280;49184;55.596;37.770;2023-07-08T12:42:25;99466.22;;;26.03;45.16
63096;BME280;49184;55.596;37.770;2023-07-08T12:44:54;99475.53;;;25.93;44.16
63096;BME280;49184;55.596;37.770;2023-07-08T12:47:20;99471.59;;;25.83;43.78
63096;BME280;49184;55.596;37.770;2023-07-08T12:49:46;99470.91;;;25.65;41.83
63096;BME280;49184;55.596;37.770;2023-07-08T12:52:20;99467.31;;;25.64;42.54
63096;BME280;49184;55.596;37.770;2023-07-08T12:54:49;99473.91;;;25.92;43.80
63096;BME280;49184;55.596;37.770;2023-07-08T12:57:16;99485.59;;;26.28;41.76
63096;BME280;49184;55.596;37.770;2023-07-08T12:59:43;99481.16;;;26.31;39.71
63096;BME280;49184;55.596;37.770;2023-07-08T13:02:17;99476.47;;;26.20;40.31
63096;BME280;49184;55.596;37.770;2023-07-08T13:04:44;99484.78;;;25.83;40.56
63096;BME280;49184;55.596;37.770;2023-07-08T13:07:18;99483.13;;;25.89;41.80
63096;BME280;49184;55.596;37.770;2023-07-08T13:09:47;99478.44;;;26.23;41.33
63096;BME280;49184;55.596;37.770;2023-07-08T13:12:17;99484.19;;;26.47;41.99
63096;BME280;49184;55.596;37.770;2023-07-08T13:14:48;99492.22;;;26.48;42.72
63096;BME280;49184;55.596;37.770;2023-07-08T13:17:14;99493.56;;;26.33;39.72
63096;BME280;49184;55.596;37.770;2023-07-08T13:19:42;99496.50;;;26.15;39.77
63096;BME280;49184;55.596;37.770;2023-07-08T13:22:18;99490.56;;;26.10;39.38
63096;BME280;49184;55.596;37.770;2023-07-08T13:24:44;99485.31;;;26.15;39.55
63096;BME280;49184;55.596;37.770;2023-07-08T13:27:28;99491.47;;;25.99;39.64
63096;BME280;49184;55.596;37.770;2023-07-08T13:29:56;99490.47;;;25.68;39.45
63096;BME280;49184;55.596;37.770;2023-07-08T13:32:30;99495.91;;;25.34;41.10
63096;BME280;49184;55.596;37.770;2023-07-08T13:34:56;99483.41;;;25.49;42.39
63096;BME280;49184;55.596;37.770;2023-07-08T13:37:22;99481.69;;;25.63;41.74
63096;BME280;49184;55.596;37.770;2023-07-08T13:39:51;99479.25;;;25.72;41.77
63096;BME280;49184;55.596;37.770;2023-07-08T13:42:18;99481.97;;;25.79;41.63
63096;BME280;49184;55.596;37.770;2023-07-08T13:44:44;99482.22;;;25.47;41.91
63096;BME280;49184;55.596;37.770;2023-07-08T13:47:22;99471.47;;;25.38;40.78
63096;BME280;49184;55.596;37.770;2023-07-08T13:49:48;99468.28;;;25.40;41.44
63096;BME280;49184;55.596;37.770;2023-07-08T13:52:20;99465.78;;;25.52;43.27
63096;BME280;49184;55.596;37.770;2023-07-08T13:54:51;99472.94;;;25.61;42.65
63096;BME280;49184;55.596;37.770;2023-07-08T13:57:22;99477.72;;;25.64;42.77
63096;BME280;49184;55.596;37.770;2023-07-08T13:59:48;99484.84;;;25.72;43.43
63096;BME280;49184;55.596;37.770;2023-07-08T14:02:20;99477.66;;;25.71;43.99
63096;BME280;49184;55.596;37.770;2023-07-08T14:04:48;99473.63;;;25.72;42.06
63096;BME280;49184;55.596;37.770;2023-07-08T14:07:21;99467.75;;;25.55;42.65
63096;BME280;49184;55.596;37.770;2023-07-08T14:09:47;99461.41;;;25.51;42.72
63096;BME280;49184;55.596;37.770;2023-07-08T14:12:13;99455.47;;;25.42;43.87
63096;BME280;49184;55.596;37.770;2023-07-08T14:14:39;99445.19;;;25.25;44.11
63096;BME280;49184;55.596;37.770;2023-07-08T14:17:05;99447.09;;;25.35;44.61
63096;BME280;49184;55.596;37.770;2023-07-08T14:19:34;99445.00;;;25.53;45.04
63096;BME280;49184;55.596;37.770;2023-07-08T14:24:34;99429.97;;;25.26;44.65
63096;BME280;49184;55.596;37.770;2023-07-08T14:27:01;99430.75;;;25.34;44.58
63096;BME280;49184;55.596;37.770;2023-07-08T14:29:27;99427.13;;;25.37;44.98
63096;BME280;49184;55.596;37.770;2023-07-08T14:31:53;99423.19;;;25.75;44.02
63096;BME280;49184;55.596;37.770;2023-07-08T14:34:23;99432.63;;;25.99;43.20
63096;BME280;49184;55.596;37.770;2023-07-08T14:36:50;99415.63;;;26.17;43.26
63096;BME280;49184;55.596;37.770;2023-07-08T14:39:19;99417.56;;;26.24;43.19
63096;BME280;49184;55.596;37.770;2023-07-08T14:41:50;99421.09;;;26.32;43.21
63096;BME280;49184;55.596;37.770;2023-07-08T14:44:20;99415.81;;;26.37;42.71
63096;BME280;49184;55.596;37.770;2023-07-08T14:46:46;99406.97;;;26.39;43.66
63096;BME280;49184;55.596;37.770;2023-07-08T14:49:19;99417.31;;;26.45;42.45
63096;BME280;49184;55.596;37.770;2023-07-08T14:51:47;99413.84;;;26.34;43.40
63096;BME280;49184;55.596;37.770;2023-07-08T14:54:13;99404.91;;;26.09;44.06
63096;BME280;49184;55.596;37.770;2023-07-08T14:56:40;99412.75;;;25.87;44.15
63096;BME280;49184;55.596;37.770;2023-07-08T14:59:06;99413.88;;;25.44;43.79
63096;BME280;49184;55.596;37.770;2023-07-08T15:01:38;99407.19;;;25.27;44.51
63096;BME280;49184;55.596;37.770;2023-07-08T15:04:08;99416.50;;;25.14;45.23
63096;BME280;49184;55.596;37.770;2023-07-08T15:06:34;99420.00;;;25.25;45.88
63096;BME280;49184;55.596;37.770;2023-07-08T15:09:02;99422.31;;;25.37;43.87
63096;BME280;49184;55.596;37.770;2023-07-08T15:11:28;99422.84;;;25.73;42.33
63096;BME280;49184;55.596;37.770;2023-07-08T15:13:55;99428.72;;;25.90;41.18
63096;BME280;49184;55.596;37.770;2023-07-08T15:16:21;99431.75;;;26.10;41.53
63096;BME280;49184;55.596;37.770;2023-07-08T15:18:47;99420.00;;;26.22;42.09
63096;BME280;49184;55.596;37.770;2023-07-08T15:21:13;99431.81;;;26.40;41.44
63096;BME280;49184;55.596;37.770;2023-07-08T15:23:39;99429.69;;;26.52;40.43
63096;BME280;49184;55.596;37.770;2023-07-08T15:26:05;99428.41;;;26.60;41.11
63096;BME280;49184;55.596;37.770;2023-07-08T15:31:13;99434.72;;;26.98;40.16
63096;BME280;49184;55.596;37.770;2023-07-08T15:33:41;99427.97;;;26.92;39.29
63096;BME280;49184;55.596;37.770;2023-07-08T15:36:10;99428.72;;;26.69;39.59
63096;BME280;49184;55.596;37.770;2023-07-08T15:38:36;99421.97;;;26.25;38.42
63096;BME280;49184;55.596;37.770;2023-07-08T15:41:02;99429.44;;;25.97;38.65
63096;BME280;49184;55.596;37.770;2023-07-08T15:43:29;99424.47;;;25.71;39.75
63096;BME280;49184;55.596;37.770;2023-07-08T15:45:55;99428.50;;;25.66;39.24
63096;BME280;49184;55.596;37.770;2023-07-08T15:48:21;99434.53;;;25.61;39.94
63096;BME280;49184;55.596;37.770;2023-07-08T15:50:47;99431.38;;;25.55;40.29
63096;BME280;49184;55.596;37.770;2023-07-08T15:53:15;99429.59;;;25.76;40.01
63096;BME280;49184;55.596;37.770;2023-07-08T15:55:45;99428.69;;;25.93;38.95
63096;BME280;49184;55.596;37.770;2023-07-08T16:00:47;99428.03;;;26.20;38.54
63096;BME280;49184;55.596;37.770;2023-07-08T16:03:16;99423.81;;;26.01;38.49
63096;BME280;49184;55.596;37.770;2023-07-08T16:05:44;99417.91;;;25.88;39.69
63096;BME280;49184;55.596;37.770;2023-07-08T16:08:10;99411.63;;;25.73;39.65
63096;BME280;49184;55.596;37.770;2023-07-08T16:10:36;99414.50;;;25.63;38.97
63096;BME280;49184;55.596;37.770;2023-07-08T16:13:03;99408.97;;;25.55;39.24
63096;BME280;49184;55.596;37.770;2023-07-08T16:15:32;99407.03;;;25.49;39.11
63096;BME280;49184;55.596;37.770;2023-07-08T16:17:59;99415.13;;;25.36;39.73
63096;BME280;49184;55.596;37.770;2023-07-08T16:20:27;99409.22;;;25.27;40.28
63096;BME280;49184;55.596;37.770;2023-07-08T16:22:55;99413.22;;;25.22;40.82
63096;BME280;49184;55.596;37.770;2023-07-08T16:25:28;99414.53;;;25.03;40.38
63096;BME280;49184;55.596;37.770;2023-07-08T16:27:55;99405.34;;;24.99;41.47
63096;BME280;49184;55.596;37.770;2023-07-08T16:30:21;99407.41;;;24.88;40.88
63096;BME280;49184;55.596;37.770;2023-07-08T16:32:47;99404.25;;;24.79;41.52
63096;BME280;49184;55.596;37.770;2023-07-08T16:35:14;99405.94;;;24.62;41.08
63096;BME280;49184;55.596;37.770;2023-07-08T16:37:41;99401.59;;;24.47;41.40
63096;BME280;49184;55.596;37.770;2023-07-08T16:40:24;99411.19;;;24.42;41.95
63096;BME280;49184;55.596;37.770;2023-07-08T16:42:55;99406.38;;;24.39;43.90
63096;BME280;49184;55.596;37.770;2023-07-08T16:45:21;99411.19;;;24.31;43.97
63096;BME280;49184;55.596;37.770;2023-07-08T16:47:48;99412.81;;;24.22;44.23
63096;BME280;49184;55.596;37.770;2023-07-08T16:50:14;99409.66;;;24.12;44.94
63096;BME280;49184;55.596;37.770;2023-07-08T16:52:41;99412.47;;;24.05;44.01
63096;BME280;49184;55.596;37.770;2023-07-08T16:55:17;99428.00;;;24.03;43.53
63096;BME280;49184;55.596;37.770;2023-07-08T16:57:43;99418.84;;;24.06;44.67
63096;BME280;49184;55.596;37.770;2023-07-08T17:00:09;99423.63;;;24.05;45.36
63096;BME280;49184;55.596;37.770;2023-07-08T17:02:36;99430.41;;;23.90;44.33
63096;BME280;49184;55.596;37.770;2023-07-08T17:05:02;99425.63;;;23.87;44.95
63096;BME280;49184;55.596;37.770;2023-07-08T17:07:36;99427.63;;;23.83;44.40
63096;BME280;49184;55.596;37.770;2023-07-08T17:10:03;99428.84;;;23.82;44.01
63096;BME280;49184;55.596;37.770;2023-07-08T17:12:29;99423.25;;;23.78;44.78
63096;BME280;49184;55.596;37.770;2023-07-08T17:14:56;99426.06;;;23.71;44.70
63096;BME280;49184;55.596;37.770;2023-07-08T17:17:22;99430.44;;;23.68;44.99
63096;BME280;49184;55.596;37.770;2023-07-08T17:19:48;99432.00;;;23.62;44.41
63096;BME280;49184;55.596;37.770;2023-07-08T17:22:14;99425.63;;;23.55;44.97
63096;BME280;49184;55.596;37.770;2023-07-08T17:24:39;99424.81;;;23.47;45.75
63096;BME280;49184;55.596;37.770;2023-07-08T17:27:05;99430.78;;;23.42;46.36
63096;BME280;49184;55.596;37.770;2023-07-08T17:29:31;99420.44;;;23.35;46.06
63096;BME280;49184;55.596;37.770;2023-07-08T17:31:58;99430.38;;;23.33;46.50
63096;BME280;49184;55.596;37.770;2023-07-08T17:34:25;99425.59;;;23.30;46.46
63096;BME280;49184;55.596;37.770;2023-07-08T17:36:52;99427.16;;;23.16;46.46
63096;BME280;49184;55.596;37.770;2023-07-08T17:39:18;99425.16;;;23.13;47.60
63096;BME280;49184;55.596;37.770;2023-07-08T17:41:44;99422.34;;;23.03;49.06
63096;BME280;49184;55.596;37.770;2023-07-08T17:44:14;99424.66;;;22.90;48.90
63096;BME280;49184;55.596;37.770;2023-07-08T17:46:42;99431.81;;;22.84;51.47
63096;BME280;49184;55.596;37.770;2023-07-08T17:49:10;99432.97;;;22.72;51.91
63096;BME280;49184;55.596;37.770;2023-07-08T17:51:37;99434.91;;;22.57;52.08
63096;BME280;49184;55.596;37.770;2023-07-08T17:54:08;99436.84;;;22.46;53.88
63096;BME280;49184;55.596;37.770;2023-07-08T17:56:38;99439.59;;;22.39;53.75
63096;BME280;49184;55.596;37.770;2023-07-08T17:59:04;99439.94;;;22.30;54.75
63096;BME280;49184;55.596;37.770;2023-07-08T18:01:33;99434.31;;;22.19;55.01
63096;BME280;49184;55.596;37.770;2023-07-08T18:03:58;99440.19;;;22.11;55.25
63096;BME280;49184;55.596;37.770;2023-07-08T18:06:24;99430.19;;;22.02;55.93
63096;BME280;49184;55.596;37.770;2023-07-08T18:08:51;99438.88;;;21.94;56.15
63096;BME280;49184;55.596;37.770;2023-07-08T18:11:18;99436.03;;;21.87;57.53
63096;BME280;49184;55.596;37.770;2023-07-08T18:13:46;99428.00;;;21.78;58.55
63096;BME280;49184;55.596;37.770;2023-07-08T18:16:14;99431.13;;;21.69;58.64
63096;BME280;49184;55.596;37.770;2023-07-08T18:18:40;99426.69;;;21.61;57.24
63096;BME280;49184;55.596;37.770;2023-07-08T18:21:12;99421.50;;;21.56;58.98
63096;BME280;49184;55.596;37.770;2023-07-08T18:23:39;99425.00;;;21.49;58.70
63096;BME280;49184;55.596;37.770;2023-07-08T18:26:05;99419.31;;;21.39;59.16
63096;BME280;49184;55.596;37.770;2023-07-08T18:28:31;99412.44;;;21.29;60.95
63096;BME280;49184;55.596;37.770;2023-07-08T18:30:57;99411.56;;;21.18;60.43
63096;BME280;49184;55.596;37.770;2023-07-08T18:33:23;99407.53;;;21.11;61.04
63096;BME280;49184;55.596;37.770;2023-07-08T18:35:50;99403.41;;;20.98;60.33
63096;BME280;49184;55.596;37.770;2023-07-08T18:38:16;99403.81;;;20.97;62.14
63096;BME280;49184;55.596;37.770;2023-07-08T18:40:42;99393.81;;;20.92;61.63
63096;BME280;49184;55.596;37.770;2023-07-08T18:43:16;99401.00;;;20.93;61.01
63096;BME280;49184;55.596;37.770;2023-07-08T18:45:43;99392.56;;;20.86;59.71
63096;BME280;49184;55.596;37.770;2023-07-08T18:48:10;99394.50;;;20.82;60.69
63096;BME280;49184;55.596;37.770;2023-07-08T18:50:37;99399.66;;;20.80;59.64
63096;BME280;49184;55.596;37.770;2023-07-08T18:53:04;99392.88;;;20.77;59.71
63096;BME280;49184;55.596;37.770;2023-07-08T18:55:34;99398.00;;;20.75;59.49
63096;BME280;49184;55.596;37.770;2023-07-08T18:57:59;99392.84;;;20.74;59.44
63096;BME280;49184;55.596;37.770;2023-07-08T19:00:25;99395.97;;;20.72;57.30
63096;BME280;49184;55.596;37.770;2023-07-08T19:02:52;99401.88;;;20.67;58.08
63096;BME280;49184;55.596;37.770;2023-07-08T19:05:19;99399.50;;;20.69;58.58
63096;BME280;49184;55.596;37.770;2023-07-08T19:07:45;99400.63;;;20.61;59.05
63096;BME280;49184;55.596;37.770;2023-07-08T19:10:12;99401.38;;;20.58;59.29
63096;BME280;49184;55.596;37.770;2023-07-08T19:12:45;99396.53;;;20.51;60.12
63096;BME280;49184;55.596;37.770;2023-07-08T19:15:22;99398.03;;;20.49;60.57
63096;BME280;49184;55.596;37.770;2023-07-08T19:17:51;99397.66;;;20.47;60.20